createdAt,value
2017-01-08T00:00:35.558Z,0
2017-01-08T00:01:34.667Z,0
2017-01-08T00:02:35.402Z,0
2017-01-08T00:03:35.947Z,0
2017-01-08T00:04:35.006Z,0
2017-01-08T00:05:35.185Z,0
2017-01-08T00:06:34.900Z,0
2017-01-08T00:07:35.375Z,0
2017-01-08T00:08:35.193Z,0
2017-01-08T00:09:34.574Z,0
2017-01-08T00:10:35.602Z,0
2017-01-08T00:11:35.244Z,0
2017-01-08T00:12:35.051Z,0
2017-01-08T00:13:34.889Z,0
2017-01-08T00:14:35.006Z,0
2017-01-08T00:15:35.488Z,0
2017-01-08T00:16:33.979Z,0
2017-01-08T00:17:34.960Z,0
2017-01-08T00:18:34.908Z,0
2017-01-08T00:19:33.873Z,0
2017-01-08T00:20:34.523Z,0
2017-01-08T00:21:34.604Z,0
2017-01-08T00:22:34.043Z,0
2017-01-08T00:23:34.107Z,0
2017-01-08T00:24:34.607Z,0
2017-01-08T00:25:34.075Z,0
2017-01-08T00:26:35.347Z,0
2017-01-08T00:27:34.682Z,0
2017-01-08T00:28:35.291Z,0
2017-01-08T00:29:34.593Z,0
2017-01-08T00:30:34.574Z,0
2017-01-08T00:31:33.841Z,0
2017-01-08T00:32:34.072Z,0
2017-01-08T00:33:34.513Z,0
2017-01-08T00:34:34.517Z,0
2017-01-08T00:35:33.720Z,0
2017-01-08T00:36:34.379Z,0
2017-01-08T00:37:35.158Z,0
2017-01-08T00:38:34.552Z,0
2017-01-08T00:39:33.679Z,0
2017-01-08T00:40:34.315Z,0
2017-01-08T00:41:34.174Z,0
2017-01-08T00:42:33.625Z,0
2017-01-08T00:43:33.578Z,0
2017-01-08T00:44:34.193Z,0
2017-01-08T00:45:34.584Z,0
2017-01-08T00:46:33.624Z,0
2017-01-08T00:47:32.876Z,0
2017-01-08T00:48:32.717Z,0
2017-01-08T00:49:34.082Z,0
2017-01-08T00:50:33.896Z,0
2017-01-08T00:51:33.711Z,0
2017-01-08T00:52:34.690Z,0
2017-01-08T00:53:33.710Z,0
2017-01-08T00:54:33.269Z,0
2017-01-08T00:55:34.659Z,0
2017-01-08T00:56:33.680Z,0
2017-01-08T00:57:33.731Z,0
2017-01-08T00:58:33.124Z,0
2017-01-08T00:59:33.093Z,0
2017-01-08T01:00:33.060Z,0
2017-01-08T01:01:34.274Z,0
2017-01-08T01:02:33.725Z,0
2017-01-08T01:03:33.702Z,0
2017-01-08T01:04:33.042Z,0
2017-01-08T01:05:33.674Z,0
2017-01-08T01:06:33.482Z,0
2017-01-08T01:07:33.951Z,0
2017-01-08T01:08:33.271Z,0
2017-01-08T01:09:32.163Z,0
2017-01-08T01:10:34.050Z,0
2017-01-08T01:11:34.159Z,0
2017-01-08T01:12:34.110Z,0
2017-01-08T01:13:33.552Z,0
2017-01-08T01:14:33.779Z,0
2017-01-08T01:15:33.386Z,0
2017-01-08T01:16:32.794Z,0
2017-01-08T01:17:32.762Z,0
2017-01-08T01:18:33.050Z,0
2017-01-08T01:19:33.300Z,0
2017-01-08T01:20:32.610Z,0
2017-01-08T01:21:32.906Z,0
2017-01-08T01:22:33.751Z,0
2017-01-08T01:23:32.561Z,0
2017-01-08T01:24:33.172Z,0
2017-01-08T01:25:32.144Z,0
2017-01-08T01:26:33.038Z,0
2017-01-08T01:27:33.121Z,0
2017-01-08T01:28:33.697Z,0
2017-01-08T01:29:32.397Z,0
2017-01-08T01:30:32.887Z,0
2017-01-08T01:31:32.719Z,0
2017-01-08T01:32:33.463Z,0
2017-01-08T01:33:32.887Z,0
2017-01-08T01:34:31.826Z,0
2017-01-08T01:35:33.556Z,0
2017-01-08T01:36:32.577Z,0
2017-01-08T01:37:31.363Z,0
2017-01-08T01:38:32.817Z,0
2017-01-08T01:39:32.362Z,0
2017-01-08T01:40:32.005Z,0
2017-01-08T01:41:33.071Z,0
2017-01-08T01:42:32.555Z,0
2017-01-08T01:43:32.265Z,0
2017-01-08T01:44:33.172Z,0
2017-01-08T01:45:31.303Z,0
2017-01-08T01:46:32.948Z,0
2017-01-08T01:47:31.842Z,0
2017-01-08T01:48:32.500Z,0
2017-01-08T01:49:32.186Z,0
2017-01-08T01:50:33.044Z,0
2017-01-08T01:51:32.495Z,0
2017-01-08T01:52:32.509Z,0
2017-01-08T01:53:31.188Z,0
2017-01-08T01:54:33.092Z,0
2017-01-08T01:55:32.868Z,0
2017-01-08T01:56:32.574Z,0
2017-01-08T01:57:31.681Z,0
2017-01-08T01:58:32.304Z,0
2017-01-08T01:59:32.246Z,0
2017-01-08T02:00:32.528Z,0
2017-01-08T02:01:32.704Z,0
2017-01-08T02:02:32.063Z,0
2017-01-08T02:03:31.400Z,0
2017-01-08T02:04:31.182Z,0
2017-01-08T02:05:32.432Z,0
2017-01-08T02:06:31.314Z,0
2017-01-08T02:07:32.018Z,0
2017-01-08T02:08:32.041Z,0
2017-01-08T02:09:30.998Z,0
2017-01-08T02:10:32.324Z,0
2017-01-08T02:11:32.283Z,0
2017-01-08T02:12:31.650Z,0
2017-01-08T02:13:32.266Z,0
2017-01-08T02:14:31.861Z,0
2017-01-08T02:15:31.237Z,0
2017-01-08T02:16:31.056Z,0
2017-01-08T02:17:31.767Z,0
2017-01-08T02:18:31.795Z,0
2017-01-08T02:19:31.635Z,0
2017-01-08T02:20:31.914Z,0
2017-01-08T02:21:31.024Z,0
2017-01-08T02:22:30.234Z,0
2017-01-08T02:23:31.343Z,0
2017-01-08T02:24:30.192Z,0
2017-01-08T02:25:30.911Z,0
2017-01-08T02:26:31.882Z,0
2017-01-08T02:27:31.191Z,0
2017-01-08T02:28:30.761Z,0
2017-01-08T02:29:31.443Z,0
2017-01-08T02:30:31.449Z,0
2017-01-08T02:31:31.758Z,0
2017-01-08T02:32:31.400Z,0
2017-01-08T02:33:31.567Z,0
2017-01-08T02:34:30.358Z,0
2017-01-08T02:35:31.155Z,0
2017-01-08T02:36:31.288Z,0
2017-01-08T02:37:31.024Z,0
2017-01-08T02:38:31.886Z,0
2017-01-08T02:39:30.993Z,0
2017-01-08T02:40:30.923Z,0
2017-01-08T02:41:30.699Z,0
2017-01-08T02:42:30.412Z,0
2017-01-08T02:43:30.428Z,0
2017-01-08T02:44:31.050Z,0
2017-01-08T02:45:30.694Z,0
2017-01-08T02:46:30.686Z,0
2017-01-08T02:47:30.328Z,0
2017-01-08T02:48:29.569Z,0
2017-01-08T02:49:30.943Z,0
2017-01-08T02:50:30.986Z,0
2017-01-08T02:51:30.475Z,0
2017-01-08T02:52:31.245Z,0
2017-01-08T02:53:30.184Z,0
2017-01-08T02:54:29.848Z,0
2017-01-08T02:55:30.452Z,0
2017-01-08T02:56:30.773Z,0
2017-01-08T02:57:29.662Z,0
2017-01-08T02:58:29.976Z,0
2017-01-08T02:59:30.699Z,0
2017-01-08T03:00:31.007Z,0
2017-01-08T03:01:30.600Z,0
2017-01-08T03:02:30.608Z,0
2017-01-08T03:03:29.848Z,0
2017-01-08T03:04:29.897Z,0
2017-01-08T03:05:29.657Z,0
2017-01-08T03:06:30.847Z,0
2017-01-08T03:07:30.496Z,0
2017-01-08T03:08:30.685Z,0
2017-01-08T03:09:30.073Z,0
2017-01-08T03:10:29.777Z,0
2017-01-08T03:11:29.704Z,0
2017-01-08T03:12:29.278Z,0
2017-01-08T03:13:30.656Z,0
2017-01-08T03:14:29.535Z,0
2017-01-08T03:15:30.158Z,0
2017-01-08T03:16:29.591Z,0
2017-01-08T03:17:30.560Z,0
2017-01-08T03:18:30.120Z,0
2017-01-08T03:19:29.723Z,0
2017-01-08T03:20:30.185Z,0
2017-01-08T03:21:30.812Z,0
2017-01-08T03:22:29.614Z,0
2017-01-08T03:23:29.758Z,0
2017-01-08T03:24:29.243Z,0
2017-01-08T03:25:29.720Z,0
2017-01-08T03:26:29.991Z,0
2017-01-08T03:27:30.123Z,0
2017-01-08T03:28:29.716Z,0
2017-01-08T03:29:29.898Z,0
2017-01-08T03:30:29.147Z,0
2017-01-08T03:31:29.536Z,0
2017-01-08T03:32:30.207Z,0
2017-01-08T03:33:29.145Z,0
2017-01-08T03:34:29.025Z,0
2017-01-08T03:35:29.681Z,0
2017-01-08T03:36:29.404Z,0
2017-01-08T03:37:30.019Z,0
2017-01-08T03:38:29.440Z,0
2017-01-08T03:39:30.292Z,0
2017-01-08T03:40:29.616Z,0
2017-01-08T03:41:28.534Z,0
2017-01-08T03:42:30.099Z,0
2017-01-08T03:43:29.217Z,0
2017-01-08T03:44:28.868Z,0
2017-01-08T03:45:29.259Z,0
2017-01-08T03:46:29.808Z,0
2017-01-08T03:47:30.086Z,0
2017-01-08T03:48:29.426Z,0
2017-01-08T03:49:29.404Z,0
2017-01-08T03:50:30.026Z,0
2017-01-08T03:51:29.704Z,0
2017-01-08T03:52:28.582Z,0
2017-01-08T03:53:29.923Z,0
2017-01-08T03:54:28.274Z,0
2017-01-08T03:55:29.302Z,0
2017-01-08T03:56:29.198Z,0
2017-01-08T03:57:28.451Z,0
2017-01-08T03:58:29.020Z,0
2017-01-08T03:59:29.094Z,0
2017-01-08T04:00:29.090Z,0
2017-01-08T04:01:28.398Z,0
2017-01-08T04:02:28.727Z,0
2017-01-08T04:03:28.857Z,0
2017-01-08T04:04:28.263Z,0
2017-01-08T04:05:28.983Z,0
2017-01-08T04:06:28.385Z,0
2017-01-08T04:07:29.542Z,0
2017-01-08T04:08:28.648Z,0
2017-01-08T04:09:29.183Z,0
2017-01-08T04:10:27.369Z,0
2017-01-08T04:11:28.098Z,0
2017-01-08T04:12:29.453Z,0
2017-01-08T04:13:28.747Z,0
2017-01-08T04:14:28.018Z,0
2017-01-08T04:15:28.631Z,0
2017-01-08T04:16:28.360Z,0
2017-01-08T04:17:28.709Z,0
2017-01-08T04:18:28.829Z,0
2017-01-08T04:19:29.249Z,0
2017-01-08T04:20:28.838Z,0
2017-01-08T04:21:28.076Z,0
2017-01-08T04:22:28.907Z,0
2017-01-08T04:23:28.536Z,0
2017-01-08T04:24:28.197Z,0
2017-01-08T04:25:28.110Z,0
2017-01-08T04:26:28.462Z,0
2017-01-08T04:27:27.943Z,0
2017-01-08T04:28:28.573Z,0
2017-01-08T04:29:27.074Z,0
2017-01-08T04:30:27.579Z,0
2017-01-08T04:31:28.639Z,0
2017-01-08T04:32:28.920Z,0
2017-01-08T04:33:28.284Z,0
2017-01-08T04:34:28.575Z,0
2017-01-08T04:35:27.471Z,0
2017-01-08T04:36:28.841Z,0
2017-01-08T04:37:28.010Z,0
2017-01-08T04:38:27.200Z,0
2017-01-08T04:39:27.449Z,0
2017-01-08T04:40:27.735Z,0
2017-01-08T04:41:26.993Z,0
2017-01-08T04:42:28.368Z,0
2017-01-08T04:43:27.278Z,0
2017-01-08T04:44:28.080Z,0
2017-01-08T04:45:27.237Z,0
2017-01-08T04:46:27.997Z,0
2017-01-08T04:47:27.640Z,0
2017-01-08T04:48:28.067Z,0
2017-01-08T04:49:26.974Z,0
2017-01-08T04:50:27.480Z,0
2017-01-08T04:51:26.904Z,0
2017-01-08T04:52:27.043Z,0
2017-01-08T04:53:27.928Z,0
2017-01-08T04:54:28.048Z,0
2017-01-08T04:55:28.033Z,0
2017-01-08T04:56:27.242Z,0
2017-01-08T04:57:27.641Z,0
2017-01-08T04:58:27.537Z,0
2017-01-08T04:59:27.281Z,0
2017-01-08T05:00:27.049Z,0
2017-01-08T05:01:27.927Z,0
2017-01-08T05:02:28.035Z,0
2017-01-08T05:03:27.364Z,0
2017-01-08T05:04:27.468Z,0
2017-01-08T05:05:26.447Z,0
2017-01-08T05:06:27.093Z,0
2017-01-08T05:07:27.007Z,0
2017-01-08T05:08:27.885Z,0
2017-01-08T05:09:27.333Z,0
2017-01-08T05:10:26.985Z,0
2017-01-08T05:11:27.605Z,0
2017-01-08T05:12:26.274Z,0
2017-01-08T05:13:26.839Z,0
2017-01-08T05:14:27.736Z,0
2017-01-08T05:15:26.253Z,0
2017-01-08T05:16:26.527Z,0
2017-01-08T05:17:27.481Z,0
2017-01-08T05:18:26.771Z,0
2017-01-08T05:19:26.879Z,0
2017-01-08T05:20:26.896Z,0
2017-01-08T05:21:27.060Z,0
2017-01-08T05:22:26.695Z,0
2017-01-08T05:23:27.014Z,0
2017-01-08T05:24:26.844Z,0
2017-01-08T05:25:27.254Z,0
2017-01-08T05:26:27.583Z,0
2017-01-08T05:27:27.206Z,0
2017-01-08T05:28:27.180Z,0
2017-01-08T05:29:27.172Z,0
2017-01-08T05:30:26.179Z,0
2017-01-08T05:31:26.545Z,0
2017-01-08T05:32:26.748Z,0
2017-01-08T05:33:26.635Z,0
2017-01-08T05:34:26.379Z,0
2017-01-08T05:35:26.341Z,0
2017-01-08T05:36:25.916Z,0
2017-01-08T05:37:26.490Z,0
2017-01-08T05:38:26.811Z,0
2017-01-08T05:39:25.763Z,0
2017-01-08T05:40:26.282Z,0
2017-01-08T05:41:26.468Z,0
2017-01-08T05:42:26.232Z,0
2017-01-08T05:43:26.148Z,0
2017-01-08T05:44:25.947Z,0
2017-01-08T05:45:26.217Z,0
2017-01-08T05:46:26.082Z,0
2017-01-08T05:47:26.975Z,0
2017-01-08T05:48:26.714Z,0
2017-01-08T05:49:24.854Z,0
2017-01-08T05:50:26.983Z,0
2017-01-08T05:51:25.891Z,0
2017-01-08T05:52:25.428Z,0
2017-01-08T05:53:25.813Z,0
2017-01-08T05:54:25.881Z,0
2017-01-08T05:55:25.792Z,0
2017-01-08T05:56:26.041Z,0
2017-01-08T05:57:25.388Z,0
2017-01-08T05:58:26.301Z,0
2017-01-08T05:59:26.749Z,0
2017-01-08T06:00:26.708Z,0
2017-01-08T06:01:24.988Z,0
2017-01-08T06:02:25.327Z,0
2017-01-08T06:03:24.986Z,0
2017-01-08T06:04:25.947Z,0
2017-01-08T06:05:26.256Z,0
2017-01-08T06:06:26.086Z,0
2017-01-08T06:07:26.234Z,0
2017-01-08T06:08:25.208Z,0
2017-01-08T06:09:25.104Z,0
2017-01-08T06:10:25.794Z,0
2017-01-08T06:11:25.723Z,0
2017-01-08T06:12:25.764Z,0
2017-01-08T06:13:26.402Z,0
2017-01-08T06:14:24.252Z,0
2017-01-08T06:15:26.001Z,0
2017-01-08T06:16:25.492Z,0
2017-01-08T06:17:24.961Z,0
2017-01-08T06:18:25.790Z,0
2017-01-08T06:19:25.153Z,0
2017-01-08T06:20:24.567Z,0
2017-01-08T06:21:24.790Z,0
2017-01-08T06:22:25.269Z,0
2017-01-08T06:23:26.138Z,0
2017-01-08T06:24:25.428Z,0
2017-01-08T06:25:24.661Z,0
2017-01-08T06:26:25.917Z,0
2017-01-08T06:27:24.784Z,0
2017-01-08T06:28:24.674Z,0
2017-01-08T06:29:25.686Z,0
2017-01-08T06:30:24.646Z,0
2017-01-08T06:31:25.264Z,0
2017-01-08T06:32:24.964Z,0
2017-01-08T06:33:24.624Z,0
2017-01-08T06:34:24.888Z,0
2017-01-08T06:35:24.523Z,0
2017-01-08T06:36:25.451Z,0
2017-01-08T06:37:25.213Z,0
2017-01-08T06:38:24.451Z,0
2017-01-08T06:39:24.451Z,0
2017-01-08T06:40:25.056Z,0
2017-01-08T06:41:25.221Z,0
2017-01-08T06:42:25.681Z,0
2017-01-08T06:43:24.991Z,0
2017-01-08T06:44:24.168Z,0
2017-01-08T06:45:24.516Z,0
2017-01-08T06:46:24.428Z,0
2017-01-08T06:47:24.208Z,0
2017-01-08T06:48:25.173Z,0
2017-01-08T06:49:24.157Z,0
2017-01-08T06:50:24.787Z,0
2017-01-08T06:51:24.757Z,0
2017-01-08T06:52:23.946Z,0
2017-01-08T06:53:24.706Z,0
2017-01-08T06:54:24.025Z,0
2017-01-08T06:55:24.036Z,0
2017-01-08T06:56:23.249Z,0
2017-01-08T06:57:24.954Z,0
2017-01-08T06:58:24.513Z,0
2017-01-08T06:59:23.287Z,0
2017-01-08T07:00:24.872Z,0
2017-01-08T07:01:23.763Z,0
2017-01-08T07:02:24.182Z,0
2017-01-08T07:03:23.899Z,0
2017-01-08T07:04:24.122Z,4
2017-01-08T07:05:24.361Z,4
2017-01-08T07:06:25.179Z,0
2017-01-08T07:07:24.366Z,4
2017-01-08T07:08:24.414Z,4
2017-01-08T07:09:24.985Z,0
2017-01-08T07:10:24.255Z,0
2017-01-08T07:11:24.276Z,4
2017-01-08T07:12:24.268Z,4
2017-01-08T07:13:25.126Z,4
2017-01-08T07:14:23.196Z,8
2017-01-08T07:15:24.062Z,8
2017-01-08T07:16:24.155Z,8
2017-01-08T07:17:23.128Z,8
2017-01-08T07:18:23.753Z,12
2017-01-08T07:19:24.161Z,12
2017-01-08T07:20:24.060Z,12
2017-01-08T07:21:24.685Z,12
2017-01-08T07:22:23.996Z,20
2017-01-08T07:23:23.233Z,16
2017-01-08T07:24:23.610Z,16
2017-01-08T07:25:24.470Z,20
2017-01-08T07:26:24.131Z,24
2017-01-08T07:27:23.549Z,24
2017-01-08T07:28:23.838Z,24
2017-01-08T07:29:24.451Z,24
2017-01-08T07:30:24.147Z,24
2017-01-08T07:31:24.085Z,32
2017-01-08T07:32:24.002Z,40
2017-01-08T07:33:23.779Z,40
2017-01-08T07:34:24.430Z,40
2017-01-08T07:35:22.697Z,44
2017-01-08T07:36:23.641Z,48
2017-01-08T07:37:23.485Z,52
2017-01-08T07:38:22.837Z,48
2017-01-08T07:39:24.251Z,52
2017-01-08T07:40:23.872Z,56
2017-01-08T07:41:23.210Z,64
2017-01-08T07:42:23.490Z,72
2017-01-08T07:43:23.789Z,72
2017-01-08T07:44:22.731Z,76
2017-01-08T07:45:22.608Z,80
2017-01-08T07:46:23.082Z,92
2017-01-08T07:47:23.016Z,96
2017-01-08T07:48:22.207Z,100
2017-01-08T07:49:23.320Z,92
2017-01-08T07:50:22.952Z,92
2017-01-08T07:51:22.962Z,100
2017-01-08T07:52:22.895Z,108
2017-01-08T07:53:23.914Z,108
2017-01-08T07:54:23.186Z,104
2017-01-08T07:55:22.426Z,116
2017-01-08T07:56:23.463Z,132
2017-01-08T07:57:23.102Z,140
2017-01-08T07:58:23.589Z,148
2017-01-08T07:59:22.396Z,148
2017-01-08T08:00:22.709Z,152
2017-01-08T08:01:22.466Z,152
2017-01-08T08:02:23.500Z,160
2017-01-08T08:03:23.326Z,160
2017-01-08T08:04:21.908Z,180
2017-01-08T08:05:22.738Z,200
2017-01-08T08:06:22.813Z,212
2017-01-08T08:07:22.186Z,212
2017-01-08T08:08:22.679Z,220
2017-01-08T08:09:22.830Z,224
2017-01-08T08:10:21.505Z,224
2017-01-08T08:11:22.022Z,244
2017-01-08T08:12:21.543Z,288
2017-01-08T08:13:22.702Z,308
2017-01-08T08:14:22.989Z,316
2017-01-08T08:15:22.648Z,332
2017-01-08T08:16:22.319Z,360
2017-01-08T08:17:21.863Z,360
2017-01-08T08:18:22.565Z,376
2017-01-08T08:19:22.544Z,384
2017-01-08T08:20:22.427Z,356
2017-01-08T08:21:21.766Z,332
2017-01-08T08:22:22.756Z,344
2017-01-08T08:23:22.456Z,372
2017-01-08T08:24:21.945Z,360
2017-01-08T08:25:22.729Z,328
2017-01-08T08:26:22.233Z,344
2017-01-08T08:27:21.873Z,416
2017-01-08T08:28:22.362Z,448
2017-01-08T08:29:22.271Z,448
2017-01-08T08:30:21.402Z,464
2017-01-08T08:31:22.100Z,516
2017-01-08T08:32:22.628Z,596
2017-01-08T08:33:22.807Z,636
2017-01-08T08:34:22.654Z,532
2017-01-08T08:35:21.489Z,516
2017-01-08T08:36:22.643Z,536
2017-01-08T08:37:21.786Z,584
2017-01-08T08:38:21.745Z,584
2017-01-08T08:39:21.334Z,588
2017-01-08T08:40:21.686Z,644
2017-01-08T08:41:21.676Z,640
2017-01-08T08:42:21.739Z,632
2017-01-08T08:43:21.982Z,684
2017-01-08T08:44:21.868Z,716
2017-01-08T08:45:21.502Z,748
2017-01-08T08:46:21.923Z,716
2017-01-08T08:47:21.860Z,756
2017-01-08T08:48:22.158Z,704
2017-01-08T08:49:21.737Z,748
2017-01-08T08:50:21.980Z,648
2017-01-08T08:51:22.327Z,660
2017-01-08T08:52:22.071Z,704
2017-01-08T08:53:21.046Z,696
2017-01-08T08:54:21.563Z,712
2017-01-08T08:55:21.255Z,656
2017-01-08T08:56:21.377Z,632
2017-01-08T08:57:20.794Z,644
2017-01-08T08:58:20.604Z,664
2017-01-08T08:59:21.887Z,584
2017-01-08T09:00:20.818Z,512
2017-01-08T09:01:22.202Z,584
2017-01-08T09:02:21.479Z,592
2017-01-08T09:03:21.337Z,532
2017-01-08T09:04:20.765Z,588
2017-01-08T09:05:21.090Z,580
2017-01-08T09:06:21.575Z,544
2017-01-08T09:07:20.387Z,556
2017-01-08T09:08:20.688Z,572
2017-01-08T09:09:21.640Z,592
2017-01-08T09:10:21.535Z,596
2017-01-08T09:11:20.936Z,592
2017-01-08T09:12:20.875Z,628
2017-01-08T09:13:20.875Z,624
2017-01-08T09:14:21.187Z,580
2017-01-08T09:15:21.153Z,684
2017-01-08T09:16:21.823Z,752
2017-01-08T09:17:20.038Z,708
2017-01-08T09:18:20.339Z,656
2017-01-08T09:19:21.718Z,696
2017-01-08T09:20:21.040Z,800
2017-01-08T09:21:19.711Z,648
2017-01-08T09:22:20.659Z,580
2017-01-08T09:23:19.619Z,728
2017-01-08T09:24:20.300Z,876
2017-01-08T09:25:19.748Z,832
2017-01-08T09:26:21.218Z,876
2017-01-08T09:27:20.709Z,864
2017-01-08T09:28:20.101Z,724
2017-01-08T09:29:20.103Z,748
2017-01-08T09:30:20.356Z,708
2017-01-08T09:31:21.389Z,692
2017-01-08T09:32:20.447Z,952
2017-01-08T09:33:19.511Z,900
2017-01-08T09:34:19.290Z,716
2017-01-08T09:35:20.593Z,720
2017-01-08T09:36:19.983Z,728
2017-01-08T09:37:20.945Z,796
2017-01-08T09:38:21.162Z,764
2017-01-08T09:39:19.121Z,728
2017-01-08T09:40:19.782Z,752
2017-01-08T09:41:19.875Z,816
2017-01-08T09:42:19.729Z,888
2017-01-08T09:43:19.843Z,872
2017-01-08T09:44:20.423Z,864
2017-01-08T09:45:19.748Z,728
2017-01-08T09:46:19.711Z,732
2017-01-08T09:47:19.943Z,912
2017-01-08T09:48:20.544Z,980
2017-01-08T09:49:20.237Z,852
2017-01-08T09:50:20.032Z,984
2017-01-08T09:51:20.777Z,1028
2017-01-08T09:52:19.934Z,1032
2017-01-08T09:53:20.734Z,1088
2017-01-08T09:54:18.726Z,1108
2017-01-08T09:55:20.048Z,1052
2017-01-08T09:56:20.859Z,1076
2017-01-08T09:57:20.091Z,1088
2017-01-08T09:58:19.891Z,1176
2017-01-08T09:59:20.075Z,1176
2017-01-08T10:00:19.379Z,1116
2017-01-08T10:01:19.453Z,1104
2017-01-08T10:02:19.189Z,1136
2017-01-08T10:03:20.000Z,1064
2017-01-08T10:04:18.648Z,1060
2017-01-08T10:05:19.597Z,1040
2017-01-08T10:06:20.394Z,1016
2017-01-08T10:07:19.524Z,1052
2017-01-08T10:08:19.825Z,1060
2017-01-08T10:09:18.976Z,1068
2017-01-08T10:10:19.701Z,1112
2017-01-08T10:11:20.423Z,1160
2017-01-08T10:12:19.124Z,1140
2017-01-08T10:13:20.083Z,1096
2017-01-08T10:14:20.033Z,1036
2017-01-08T10:15:19.011Z,1044
2017-01-08T10:16:19.672Z,1036
2017-01-08T10:17:18.311Z,988
2017-01-08T10:18:20.259Z,960
2017-01-08T10:19:18.759Z,920
2017-01-08T10:20:19.549Z,904
2017-01-08T10:21:19.108Z,928
2017-01-08T10:22:18.855Z,952
2017-01-08T10:23:19.136Z,1000
2017-01-08T10:24:19.145Z,944
2017-01-08T10:25:19.474Z,944
2017-01-08T10:26:18.953Z,988
2017-01-08T10:27:18.621Z,948
2017-01-08T10:28:19.537Z,952
2017-01-08T10:29:19.978Z,912
2017-01-08T10:30:19.324Z,960
2017-01-08T10:31:19.626Z,968
2017-01-08T10:32:19.011Z,940
2017-01-08T10:33:18.500Z,924
2017-01-08T10:34:19.094Z,880
2017-01-08T10:35:19.222Z,928
2017-01-08T10:36:19.268Z,976
2017-01-08T10:37:19.046Z,964
2017-01-08T10:38:18.219Z,944
2017-01-08T10:39:18.867Z,932
2017-01-08T10:40:19.374Z,896
2017-01-08T10:41:19.696Z,844
2017-01-08T10:42:19.135Z,836
2017-01-08T10:43:18.542Z,860
2017-01-08T10:44:18.294Z,888
2017-01-08T10:45:17.944Z,928
2017-01-08T10:46:19.206Z,908
2017-01-08T10:47:18.734Z,960
2017-01-08T10:48:17.777Z,904
2017-01-08T10:49:18.512Z,828
2017-01-08T10:50:18.443Z,844
2017-01-08T10:51:19.441Z,840
2017-01-08T10:52:18.429Z,760
2017-01-08T10:53:18.737Z,796
2017-01-08T10:54:18.925Z,868
2017-01-08T10:55:17.596Z,936
2017-01-08T10:56:18.352Z,864
2017-01-08T10:57:18.603Z,860
2017-01-08T10:58:18.182Z,912
2017-01-08T10:59:18.603Z,956
2017-01-08T11:00:18.187Z,924
2017-01-08T11:01:19.206Z,876
2017-01-08T11:02:18.285Z,988
2017-01-08T11:03:18.061Z,1156
2017-01-08T11:04:17.950Z,1156
2017-01-08T11:05:17.424Z,1212
2017-01-08T11:06:18.433Z,1100
2017-01-08T11:07:19.042Z,1152
2017-01-08T11:08:18.883Z,1112
2017-01-08T11:09:19.074Z,1044
2017-01-08T11:10:18.319Z,1244
2017-01-08T11:11:18.276Z,1308
2017-01-08T11:12:17.792Z,1452
2017-01-08T11:13:19.010Z,1572
2017-01-08T11:14:17.891Z,1620
2017-01-08T11:15:17.180Z,1752
2017-01-08T11:16:17.991Z,1928
2017-01-08T11:17:18.247Z,1768
2017-01-08T11:18:18.129Z,1832
2017-01-08T11:19:18.138Z,2072
2017-01-08T11:20:17.970Z,1972
2017-01-08T11:21:17.317Z,1740
2017-01-08T11:22:18.057Z,1748
2017-01-08T11:23:17.345Z,1852
2017-01-08T11:24:17.704Z,1888
2017-01-08T11:25:17.953Z,1960
2017-01-08T11:26:18.121Z,1980
2017-01-08T11:27:17.548Z,2128
2017-01-08T11:28:17.881Z,2024
2017-01-08T11:29:18.341Z,1968
2017-01-08T11:30:17.701Z,2068
2017-01-08T11:31:17.829Z,2124
2017-01-08T11:32:17.943Z,1980
2017-01-08T11:33:17.615Z,2024
2017-01-08T11:34:16.979Z,1944
2017-01-08T11:35:17.379Z,1900
2017-01-08T11:36:17.407Z,1780
2017-01-08T11:37:18.369Z,1656
2017-01-08T11:38:17.606Z,1668
2017-01-08T11:39:17.326Z,1700
2017-01-08T11:40:16.824Z,1568
2017-01-08T11:41:17.608Z,1376
2017-01-08T11:42:17.490Z,1448
2017-01-08T11:43:16.782Z,1488
2017-01-08T11:44:17.044Z,1556
2017-01-08T11:45:16.729Z,1664
2017-01-08T11:46:17.435Z,1580
2017-01-08T11:47:16.752Z,1452
2017-01-08T11:48:17.293Z,1320
2017-01-08T11:49:17.051Z,1232
2017-01-08T11:50:17.499Z,1108
2017-01-08T11:51:17.290Z,1168
2017-01-08T11:52:17.819Z,1168
2017-01-08T11:53:16.838Z,1068
2017-01-08T11:54:17.453Z,1056
2017-01-08T11:55:16.589Z,1092
2017-01-08T11:56:16.776Z,1124
2017-01-08T11:57:17.202Z,1128
2017-01-08T11:58:16.157Z,1052
2017-01-08T11:59:17.109Z,1036
2017-01-08T12:00:16.962Z,1020
2017-01-08T12:01:16.597Z,996
2017-01-08T12:02:16.919Z,964
2017-01-08T12:03:16.995Z,964
2017-01-08T12:04:17.303Z,1064
2017-01-08T12:05:17.504Z,1136
2017-01-08T12:06:16.063Z,1208
2017-01-08T12:07:16.929Z,1240
2017-01-08T12:08:16.240Z,1296
2017-01-08T12:09:17.411Z,1460
2017-01-08T12:10:15.719Z,1676
2017-01-08T12:11:16.692Z,1640
2017-01-08T12:12:15.882Z,1600
2017-01-08T12:13:16.026Z,1512
2017-01-08T12:14:17.471Z,1476
2017-01-08T12:15:15.658Z,1632
2017-01-08T12:16:16.033Z,1708
2017-01-08T12:17:16.026Z,1612
2017-01-08T12:18:16.612Z,1308
2017-01-08T12:19:15.524Z,1340
2017-01-08T12:20:16.196Z,1488
2017-01-08T12:21:16.891Z,1496
2017-01-08T12:22:16.751Z,1536
2017-01-08T12:23:16.511Z,1556
2017-01-08T12:24:16.155Z,1604
2017-01-08T12:25:16.125Z,1564
2017-01-08T12:26:16.973Z,1600
2017-01-08T12:27:16.422Z,1656
2017-01-08T12:28:16.040Z,1600
2017-01-08T12:29:16.930Z,1552
2017-01-08T12:30:16.020Z,1612
2017-01-08T12:31:15.999Z,1576
2017-01-08T12:32:16.327Z,1528
2017-01-08T12:33:15.639Z,1504
2017-01-08T12:34:16.760Z,1528
2017-01-08T12:35:15.561Z,1424
2017-01-08T12:36:16.216Z,1308
2017-01-08T12:37:16.260Z,1276
2017-01-08T12:38:15.318Z,1284
2017-01-08T12:39:16.652Z,1328
2017-01-08T12:40:16.455Z,1372
2017-01-08T12:41:15.438Z,1456
2017-01-08T12:42:15.999Z,1500
2017-01-08T12:43:15.583Z,1576
2017-01-08T12:44:14.623Z,1636
2017-01-08T12:45:15.652Z,1632
2017-01-08T12:46:16.622Z,1584
2017-01-08T12:47:14.853Z,1604
2017-01-08T12:48:15.828Z,1672
2017-01-08T12:49:15.217Z,1792
2017-01-08T12:50:15.535Z,1776
2017-01-08T12:51:15.487Z,1820
2017-01-08T12:52:16.252Z,1860
2017-01-08T12:53:15.800Z,1908
2017-01-08T12:54:16.389Z,1892
2017-01-08T12:55:15.402Z,1876
2017-01-08T12:56:15.726Z,1876
2017-01-08T12:57:14.313Z,1792
2017-01-08T12:58:15.035Z,1708
2017-01-08T12:59:15.309Z,1740
2017-01-08T13:00:15.604Z,1732
2017-01-08T13:01:16.104Z,1688
2017-01-08T13:02:15.246Z,1652
2017-01-08T13:03:15.382Z,1676
2017-01-08T13:04:14.454Z,1652
2017-01-08T13:05:14.501Z,1584
2017-01-08T13:06:15.761Z,1460
2017-01-08T13:07:15.100Z,1440
2017-01-08T13:08:15.329Z,1356
2017-01-08T13:09:15.152Z,1328
2017-01-08T13:10:15.729Z,1360
2017-01-08T13:11:15.030Z,1300
2017-01-08T13:12:15.978Z,1236
2017-01-08T13:13:14.997Z,1192
2017-01-08T13:14:15.054Z,1192
2017-01-08T13:15:15.176Z,1160
2017-01-08T13:16:14.829Z,1188
2017-01-08T13:17:14.921Z,1264
2017-01-08T13:18:15.534Z,1280
2017-01-08T13:19:14.504Z,1288
2017-01-08T13:20:14.894Z,1320
2017-01-08T13:21:14.486Z,1336
2017-01-08T13:22:14.844Z,1340
2017-01-08T13:23:14.643Z,1372
2017-01-08T13:24:15.712Z,1388
2017-01-08T13:25:14.683Z,1420
2017-01-08T13:26:14.767Z,1488
2017-01-08T13:27:15.250Z,1448
2017-01-08T13:28:15.249Z,1428
2017-01-08T13:29:13.846Z,1400
2017-01-08T13:30:14.744Z,1448
2017-01-08T13:31:14.880Z,1468
2017-01-08T13:32:14.211Z,1468
2017-01-08T13:33:15.132Z,1484
2017-01-08T13:34:14.691Z,1560
2017-01-08T13:35:15.426Z,1588
2017-01-08T13:36:13.785Z,1604
2017-01-08T13:37:14.720Z,1608
2017-01-08T13:38:14.723Z,1588
2017-01-08T13:39:14.275Z,1532
2017-01-08T13:40:14.824Z,1432
2017-01-08T13:41:14.922Z,1360
2017-01-08T13:42:13.296Z,1312
2017-01-08T13:43:14.031Z,1248
2017-01-08T13:44:15.221Z,1232
2017-01-08T13:45:14.387Z,1228
2017-01-08T13:46:13.429Z,1256
2017-01-08T13:47:14.488Z,1272
2017-01-08T13:48:13.488Z,1256
2017-01-08T13:49:14.448Z,1216
2017-01-08T13:50:13.766Z,1188
2017-01-08T13:51:14.282Z,1196
2017-01-08T13:52:14.327Z,1152
2017-01-08T13:53:14.217Z,1116
2017-01-08T13:54:13.973Z,1092
2017-01-08T13:55:13.950Z,1048
2017-01-08T13:56:14.125Z,1020
2017-01-08T13:57:14.530Z,1012
2017-01-08T13:58:14.405Z,1008
2017-01-08T13:59:13.370Z,1032
2017-01-08T14:00:14.364Z,1004
2017-01-08T14:01:14.133Z,992
2017-01-08T14:02:13.302Z,960
2017-01-08T14:03:13.773Z,932
2017-01-08T14:04:14.197Z,908
2017-01-08T14:05:13.709Z,888
2017-01-08T14:06:14.347Z,892
2017-01-08T14:07:13.987Z,908
2017-01-08T14:08:14.607Z,884
2017-01-08T14:09:13.875Z,912
2017-01-08T14:10:14.445Z,900